createdAt,value
2023-01-29T00:00:10.023Z,3.25
2023-01-29T00:02:37.185Z,4.80
2023-01-29T00:07:52.020Z,4.20
2023-01-29T00:10:18.756Z,3.75
2023-01-29T00:10:20.858Z,4.60
2023-01-29T00:12:45.178Z,4.03
2023-01-29T00:15:12.242Z,3.80
2023-01-29T00:17:38.627Z,3.75
2023-01-29T00:20:05.521Z,3.60
2023-01-29T00:22:31.966Z,3.80
2023-01-29T00:24:58.548Z,3.90
2023-01-29T00:27:25.223Z,4.00
2023-01-29T00:30:11.655Z,3.60
2023-01-29T00:32:38.554Z,3.80
2023-01-29T00:35:05.660Z,3.60
2023-01-29T00:37:32.157Z,3.53
2023-01-29T00:39:58.832Z,3.97
2023-01-29T00:42:43.597Z,3.73
2023-01-29T00:45:11.217Z,3.90
2023-01-29T00:47:37.825Z,3.60
2023-01-29T00:50:10.909Z,3.88
2023-01-29T00:52:37.553Z,3.67
2023-01-29T00:55:05.759Z,3.70
2023-01-29T00:57:33.853Z,4.20
2023-01-29T01:00:00.310Z,4.47
2023-01-29T01:02:45.871Z,4.33
2023-01-29T01:05:17.791Z,4.23
2023-01-29T01:07:48.605Z,3.90
2023-01-29T01:10:21.342Z,4.00
2023-01-29T01:12:54.917Z,3.80
2023-01-29T01:15:23.150Z,4.07
2023-01-29T01:17:55.810Z,4.03
2023-01-29T01:20:23.472Z,3.80
2023-01-29T01:22:50.158Z,3.97
2023-01-29T01:25:17.556Z,4.30
2023-01-29T01:27:44.313Z,4.63
2023-01-29T01:30:16.199Z,5.03
2023-01-29T01:32:43.355Z,3.90
2023-01-29T01:35:11.010Z,3.70
2023-01-29T01:37:40.239Z,3.80
2023-01-29T01:40:12.797Z,3.80
2023-01-29T01:42:40.130Z,4.13
2023-01-29T01:45:10.264Z,3.63
2023-01-29T01:47:56.295Z,3.90
2023-01-29T01:50:26.977Z,3.67
2023-01-29T01:52:56.221Z,3.50
2023-01-29T01:55:26.940Z,3.85
2023-01-29T01:57:57.105Z,3.75
2023-01-29T02:00:25.540Z,3.97
2023-01-29T02:03:11.178Z,3.87
2023-01-29T02:05:56.720Z,3.50
2023-01-29T02:08:56.691Z,3.90
2023-01-29T02:11:24.057Z,3.70
2023-01-29T02:13:53.646Z,4.23
2023-01-29T02:16:21.903Z,4.17
2023-01-29T02:18:49.294Z,4.40
2023-01-29T02:21:46.692Z,4.60
2023-01-29T02:24:31.348Z,4.20
2023-01-29T02:27:16.600Z,4.23
2023-01-29T02:29:45.849Z,4.40
2023-01-29T02:32:31.571Z,4.73
2023-01-29T02:35:32.058Z,4.00
2023-01-29T02:38:05.549Z,4.60
2023-01-29T02:40:37.609Z,4.90
2023-01-29T02:43:16.112Z,4.73
2023-01-29T02:46:05.637Z,4.67
2023-01-29T02:49:00.315Z,4.60
2023-01-29T02:51:35.320Z,4.33
2023-01-29T02:54:03.723Z,4.30
2023-01-29T02:56:54.379Z,4.10
2023-01-29T02:59:24.777Z,4.30
2023-01-29T03:02:08.612Z,4.40
2023-01-29T03:04:42.591Z,4.60
2023-01-29T03:07:35.676Z,4.60
2023-01-29T03:10:03.649Z,4.67
2023-01-29T03:12:36.612Z,5.23
2023-01-29T03:15:14.197Z,4.53
2023-01-29T03:17:48.168Z,4.87
2023-01-29T03:20:20.614Z,4.40
2023-01-29T03:22:52.685Z,4.93
2023-01-29T03:25:39.680Z,5.47
2023-01-29T03:28:25.040Z,8.83
2023-01-29T03:31:14.699Z,9.60
2023-01-29T03:33:48.969Z,8.83
2023-01-29T03:36:45.162Z,8.97
2023-01-29T03:39:12.339Z,7.80
2023-01-29T03:41:47.612Z,7.40
2023-01-29T03:44:33.550Z,8.07
2023-01-29T03:47:20.217Z,7.10
2023-01-29T03:50:07.229Z,7.70
2023-01-29T03:53:00.592Z,6.87
2023-01-29T03:55:41.517Z,6.10
2023-01-29T03:58:25.374Z,6.23
2023-01-29T04:00:56.190Z,5.60
2023-01-29T04:04:01.357Z,5.53
2023-01-29T04:06:30.377Z,4.67
2023-01-29T04:09:01.209Z,4.60
2023-01-29T04:11:28.803Z,4.87
2023-01-29T04:13:56.357Z,4.33
2023-01-29T04:16:27.390Z,6.33
2023-01-29T04:18:54.658Z,5.30
2023-01-29T04:21:21.148Z,5.27
2023-01-29T04:23:47.577Z,5.30
2023-01-29T04:26:16.647Z,5.03
2023-01-29T04:28:56.006Z,5.53
2023-01-29T04:31:28.573Z,4.83
2023-01-29T04:34:35.525Z,4.90
2023-01-29T04:37:11.606Z,5.03
2023-01-29T04:39:49.883Z,4.47
2023-01-29T04:42:25.355Z,5.17
2023-01-29T04:45:19.153Z,4.40
2023-01-29T04:48:05.100Z,5.27
2023-01-29T04:50:37.937Z,5.57
2023-01-29T04:53:13.922Z,5.50
2023-01-29T04:55:59.528Z,5.63
2023-01-29T04:58:33.940Z,5.73
2023-01-29T05:01:02.287Z,5.33
2023-01-29T05:03:29.895Z,6.00
2023-01-29T05:05:58.002Z,5.67
2023-01-29T05:08:25.458Z,5.30
2023-01-29T05:10:53.492Z,5.30
2023-01-29T05:13:21.673Z,5.60
2023-01-29T05:15:52.455Z,5.37
2023-01-29T05:18:19.127Z,4.53
2023-01-29T05:20:45.946Z,4.43
2023-01-29T05:23:16.446Z,4.23
2023-01-29T05:25:42.946Z,5.00
2023-01-29T05:28:18.880Z,3.93
2023-01-29T05:30:46.509Z,4.17
2023-01-29T05:33:12.899Z,4.23
2023-01-29T05:35:39.440Z,4.10
2023-01-29T05:38:05.858Z,4.20
2023-01-29T05:40:32.357Z,4.60
2023-01-29T05:42:58.764Z,4.00
2023-01-29T05:45:25.595Z,4.20
2023-01-29T05:47:55.897Z,4.73
2023-01-29T05:50:22.351Z,4.20
2023-01-29T05:52:48.715Z,3.90
2023-01-29T05:55:15.242Z,4.20
2023-01-29T05:57:41.716Z,4.20
2023-01-29T06:00:09.296Z,4.73
2023-01-29T06:02:35.726Z,4.93
2023-01-29T06:05:02.172Z,5.50
2023-01-29T06:07:28.536Z,5.77
2023-01-29T06:09:54.960Z,4.97
2023-01-29T06:12:21.718Z,5.27
2023-01-29T06:14:48.105Z,4.80
2023-01-29T06:17:14.540Z,5.10
2023-01-29T06:19:41.039Z,4.93
2023-01-29T06:22:07.477Z,5.07
2023-01-29T06:24:33.891Z,4.30
2023-01-29T06:27:00.396Z,4.90
2023-01-29T06:29:26.836Z,5.57
2023-01-29T06:31:53.426Z,6.00
2023-01-29T06:34:19.945Z,7.07
2023-01-29T06:36:46.808Z,7.00
2023-01-29T06:39:13.276Z,7.97
2023-01-29T06:41:39.692Z,10.13
2023-01-29T06:44:06.070Z,12.30
2023-01-29T06:46:32.540Z,9.60
2023-01-29T06:49:02.609Z,6.87
2023-01-29T06:51:29.091Z,6.30
2023-01-29T06:53:56.304Z,6.80
2023-01-29T06:56:23.516Z,6.97
2023-01-29T06:58:49.976Z,7.07
2023-01-29T07:01:33.327Z,6.80
2023-01-29T07:04:00.896Z,6.87
2023-01-29T07:06:31.008Z,6.90
2023-01-29T07:08:57.506Z,6.83
2023-01-29T07:11:24.002Z,7.63
2023-01-29T07:13:50.442Z,8.33
2023-01-29T07:16:17.002Z,7.07
2023-01-29T07:18:43.751Z,7.23
2023-01-29T07:21:10.252Z,6.70
2023-01-29T07:23:36.688Z,6.33
2023-01-29T07:26:04.411Z,6.30
2023-01-29T07:28:30.918Z,5.73
2023-01-29T07:30:58.631Z,6.47
2023-01-29T07:33:25.634Z,7.10
2023-01-29T07:35:52.688Z,6.83
2023-01-29T07:38:19.341Z,7.30
2023-01-29T07:40:45.759Z,9.17
2023-01-29T07:43:12.176Z,9.57
2023-01-29T07:45:39.789Z,9.97
2023-01-29T07:48:07.602Z,9.37
2023-01-29T07:50:35.093Z,9.93
2023-01-29T07:53:02.004Z,11.70
2023-01-29T07:55:28.455Z,11.43
2023-01-29T07:57:58.915Z,13.73
2023-01-29T08:00:25.724Z,13.47
2023-01-29T08:02:52.175Z,14.80
2023-01-29T08:05:19.042Z,13.93
2023-01-29T08:07:51.480Z,11.77
2023-01-29T08:10:23.657Z,12.80
2023-01-29T08:13:00.567Z,12.63
2023-01-29T08:15:27.940Z,11.73
2023-01-29T08:17:57.948Z,11.10
2023-01-29T08:20:25.008Z,10.93
2023-01-29T08:23:01.787Z,11.77
2023-01-29T08:25:29.254Z,10.47
2023-01-29T08:27:59.565Z,10.43
2023-01-29T08:30:28.140Z,11.40
2023-01-29T08:32:54.681Z,11.07
2023-01-29T08:35:21.768Z,13.17
2023-01-29T08:38:03.125Z,11.73
2023-01-29T08:40:32.159Z,12.07
2023-01-29T08:43:03.992Z,11.57
2023-01-29T08:45:34.513Z,10.70
2023-01-29T08:48:00.989Z,9.43
2023-01-29T08:50:27.485Z,9.80
2023-01-29T08:53:00.368Z,9.40
2023-01-29T08:55:27.478Z,9.40
2023-01-29T08:57:54.182Z,9.87
2023-01-29T09:00:21.008Z,9.40
2023-01-29T09:02:47.493Z,9.57
2023-01-29T09:05:14.318Z,9.60
2023-01-29T09:07:41.153Z,10.13
2023-01-29T09:10:08.081Z,9.37
2023-01-29T09:12:34.700Z,8.77
2023-01-29T09:15:01.171Z,8.40
2023-01-29T09:17:27.586Z,8.60
2023-01-29T09:19:53.969Z,8.13
2023-01-29T09:22:20.616Z,8.83
2023-01-29T09:24:47.088Z,7.40
2023-01-29T09:27:13.527Z,7.87
2023-01-29T09:29:40.011Z,7.47
2023-01-29T09:32:07.146Z,7.20
2023-01-29T09:34:33.874Z,7.57
2023-01-29T09:37:00.343Z,8.43
2023-01-29T09:39:26.729Z,7.67
2023-01-29T09:41:59.985Z,8.20
2023-01-29T09:45:03.896Z,8.03
2023-01-29T09:47:32.439Z,7.77
2023-01-29T09:50:05.652Z,7.73
2023-01-29T09:52:34.810Z,7.80
2023-01-29T09:55:15.209Z,7.20
2023-01-29T09:57:46.804Z,8.37
2023-01-29T10:00:15.882Z,7.73
2023-01-29T10:03:16.489Z,7.53
2023-01-29T10:06:03.761Z,9.40
2023-01-29T10:09:08.074Z,8.10
2023-01-29T10:11:49.588Z,7.83
2023-01-29T10:14:37.847Z,8.13
2023-01-29T10:17:22.014Z,8.80
2023-01-29T10:20:27.310Z,8.57
2023-01-29T10:23:28.939Z,8.00
2023-01-29T10:25:55.835Z,8.37
2023-01-29T10:28:26.759Z,8.43
2023-01-29T10:30:58.774Z,8.40
2023-01-29T10:34:01.435Z,7.03
2023-01-29T10:36:44.854Z,10.00
2023-01-29T10:39:17.358Z,7.97
2023-01-29T10:42:07.192Z,9.63
2023-01-29T10:44:51.815Z,8.17
2023-01-29T10:47:30.709Z,7.73
2023-01-29T10:50:12.307Z,8.10
2023-01-29T10:53:15.894Z,7.87
2023-01-29T10:56:23.643Z,7.80
2023-01-29T10:59:09.767Z,7.27
2023-01-29T11:01:36.269Z,7.30
2023-01-29T11:04:05.924Z,7.30
2023-01-29T11:06:36.700Z,7.27
2023-01-29T11:09:05.865Z,7.43
2023-01-29T11:11:41.984Z,7.53
2023-01-29T11:14:19.158Z,6.47
2023-01-29T11:16:47.791Z,6.73
2023-01-29T11:19:15.467Z,7.17
2023-01-29T11:21:51.146Z,7.20
2023-01-29T11:24:18.587Z,7.43
2023-01-29T11:26:47.194Z,8.33
2023-01-29T11:29:38.188Z,8.40
2023-01-29T11:32:07.064Z,9.30
2023-01-29T11:34:33.937Z,9.80
2023-01-29T11:37:02.329Z,9.18
2023-01-29T11:39:30.426Z,9.33
2023-01-29T11:41:58.558Z,8.15
2023-01-29T11:44:29.381Z,9.67
2023-01-29T11:47:12.595Z,9.88
2023-01-29T11:49:40.187Z,10.23
2023-01-29T11:52:09.353Z,10.23
2023-01-29T11:54:44.930Z,9.65
2023-01-29T11:57:24.239Z,10.68
2023-01-29T11:59:51.938Z,10.13
2023-01-29T12:02:32.302Z,10.07
2023-01-29T12:05:06.059Z,9.57
2023-01-29T12:07:32.763Z,10.82
2023-01-29T12:10:00.174Z,11.55
2023-01-29T12:12:29.132Z,9.10
2023-01-29T12:15:19.494Z,9.43
2023-01-29T12:17:51.479Z,8.85
2023-01-29T12:20:23.166Z,8.48
2023-01-29T12:23:12.158Z,8.82
2023-01-29T12:25:45.358Z,9.38
2023-01-29T12:28:43.833Z,9.23
2023-01-29T12:31:16.384Z,9.82
2023-01-29T12:34:13.523Z,9.18
2023-01-29T12:36:52.832Z,9.70
2023-01-29T12:39:20.197Z,10.05
2023-01-29T12:42:15.207Z,9.20
2023-01-29T12:44:51.869Z,9.40
2023-01-29T12:47:31.723Z,10.57
2023-01-29T12:50:02.415Z,10.95
2023-01-29T12:52:36.337Z,10.23
2023-01-29T12:55:07.863Z,10.25
2023-01-29T12:57:55.802Z,10.43
2023-01-29T13:00:28.531Z,10.88
2023-01-29T13:03:10.210Z,10.60
2023-01-29T13:05:41.396Z,10.95
2023-01-29T13:08:12.102Z,10.95
2023-01-29T13:10:43.349Z,10.23
2023-01-29T13:13:14.641Z,10.88
2023-01-29T13:15:42.455Z,10.35
2023-01-29T13:18:30.298Z,10.98
2023-01-29T13:20:57.327Z,10.95
2023-01-29T13:23:30.832Z,10.93
2023-01-29T13:25:57.356Z,11.02
2023-01-29T13:28:25.798Z,11.15
2023-01-29T13:31:30.055Z,12.15
2023-01-29T13:34:03.953Z,12.27
2023-01-29T13:36:31.117Z,12.70
2023-01-29T13:39:08.594Z,12.98
2023-01-29T13:41:37.884Z,11.48
2023-01-29T13:44:18.476Z,12.63
2023-01-29T13:46:49.878Z,11.68
2023-01-29T13:49:25.907Z,11.93
2023-01-29T13:51:52.474Z,11.98
2023-01-29T13:54:23.144Z,11.93
2023-01-29T13:56:55.557Z,12.43
2023-01-29T13:59:24.337Z,12.60
2023-01-29T14:01:50.983Z,12.68
2023-01-29T14:04:26.747Z,12.82
2023-01-29T14:06:54.721Z,13.52
2023-01-29T14:09:39.380Z,12.27
2023-01-29T14:12:21.006Z,13.25
2023-01-29T14:14:59.520Z,13.80
2023-01-29T14:17:26.928Z,13.32
2023-01-29T14:20:18.530Z,12.88
2023-01-29T14:22:53.949Z,15.80
2023-01-29T14:25:22.417Z,13.82
2023-01-29T14:27:49.097Z,13.70
2023-01-29T14:30:17.833Z,12.75
2023-01-29T14:32:48.395Z,12.73
2023-01-29T14:35:24.421Z,12.57
2023-01-29T14:37:53.513Z,13.37
2023-01-29T14:40:19.911Z,12.97
2023-01-29T14:43:08.509Z,13.87
2023-01-29T14:45:39.796Z,14.73
2023-01-29T14:48:36.812Z,15.43
2023-01-29T14:51:09.750Z,15.03
2023-01-29T14:53:55.947Z,14.47
2023-01-29T14:56:34.373Z,15.33
2023-01-29T14:59:13.258Z,14.67
2023-01-29T15:01:46.181Z,13.70
2023-01-29T15:04:30.581Z,15.90
2023-01-29T15:07:04.552Z,15.63
2023-01-29T15:09:46.788Z,15.65
2023-01-29T15:12:39.847Z,16.43
2023-01-29T15:15:28.489Z,15.30
2023-01-29T15:18:03.561Z,16.10
2023-01-29T15:20:36.698Z,14.77
2023-01-29T15:23:04.635Z,15.77
2023-01-29T15:25:36.389Z,15.10
2023-01-29T15:28:08.467Z,15.13
2023-01-29T15:30:35.766Z,15.07
2023-01-29T15:33:03.141Z,16.03
2023-01-29T15:35:30.735Z,15.73
2023-01-29T15:38:07.383Z,15.07
2023-01-29T15:40:34.454Z,15.83
2023-01-29T15:43:00.883Z,14.60
2023-01-29T15:45:33.514Z,14.53
2023-01-29T15:48:03.948Z,15.57
2023-01-29T15:50:31.216Z,14.90
2023-01-29T15:52:58.844Z,15.20
2023-01-29T15:55:26.091Z,14.90
2023-01-29T15:57:52.681Z,15.27
2023-01-29T16:00:24.457Z,15.10
2023-01-29T16:02:51.173Z,15.10
2023-01-29T16:05:25.894Z,14.93
2023-01-29T16:07:52.546Z,17.27
2023-01-29T16:10:24.670Z,16.30
2023-01-29T16:12:52.084Z,15.30
2023-01-29T16:15:32.614Z,16.10
2023-01-29T16:18:00.695Z,15.63
2023-01-29T16:20:32.241Z,14.80
2023-01-29T16:22:58.862Z,17.30
2023-01-29T16:25:25.332Z,15.13
2023-01-29T16:27:51.823Z,15.10
2023-01-29T16:30:18.717Z,15.60
2023-01-29T16:32:45.262Z,15.87
2023-01-29T16:35:17.037Z,17.60
2023-01-29T16:37:47.919Z,15.03
2023-01-29T16:40:22.082Z,14.27
2023-01-29T16:42:48.492Z,14.80
2023-01-29T16:45:27.491Z,13.27
2023-01-29T16:48:27.672Z,14.40
2023-01-29T16:51:20.434Z,14.73
2023-01-29T16:54:02.003Z,14.37
2023-01-29T16:56:31.241Z,14.30
2023-01-29T16:58:58.189Z,14.30
2023-01-29T17:01:27.000Z,15.60
2023-01-29T17:04:05.717Z,14.93
2023-01-29T17:06:32.744Z,14.77
2023-01-29T17:08:59.556Z,14.40
2023-01-29T17:11:36.477Z,16.00
2023-01-29T17:14:05.945Z,15.27
2023-01-29T17:16:35.000Z,15.63
2023-01-29T17:19:01.659Z,15.97
2023-01-29T17:21:31.010Z,16.37
2023-01-29T17:23:57.489Z,16.13
2023-01-29T17:26:24.759Z,16.67
2023-01-29T17:28:51.681Z,15.57
2023-01-29T17:31:18.283Z,16.30
2023-01-29T17:33:46.090Z,17.53
2023-01-29T17:36:15.226Z,18.20
2023-01-29T17:38:42.001Z,16.97
2023-01-29T17:41:20.570Z,16.23
2023-01-29T17:43:46.983Z,17.30
2023-01-29T17:46:15.790Z,17.43
2023-01-29T17:48:42.997Z,18.00
2023-01-29T17:51:13.443Z,17.03
2023-01-29T17:53:46.063Z,17.87
2023-01-29T17:56:17.566Z,20.20
2023-01-29T17:58:44.049Z,22.90
2023-01-29T18:01:10.473Z,24.70
2023-01-29T18:03:36.993Z,27.10
2023-01-29T18:06:03.555Z,25.47
2023-01-29T18:08:32.894Z,26.57
2023-01-29T18:11:00.048Z,28.67
2023-01-29T18:13:29.481Z,35.00
2023-01-29T18:15:55.933Z,38.17
2023-01-29T18:18:23.671Z,37.30
2023-01-29T18:20:50.708Z,37.53
2023-01-29T18:23:17.329Z,35.27
2023-01-29T18:25:44.760Z,27.13
2023-01-29T18:28:19.486Z,23.60
2023-01-29T18:30:47.317Z,22.50
2023-01-29T18:33:14.989Z,22.30
2023-01-29T18:35:41.467Z,19.83
2023-01-29T18:38:07.924Z,20.80
2023-01-29T18:40:34.367Z,21.07
2023-01-29T18:43:00.855Z,20.23
2023-01-29T18:45:28.284Z,19.63
2023-01-29T18:47:55.360Z,21.13
2023-01-29T18:50:26.298Z,20.47
2023-01-29T18:52:55.831Z,21.20
2023-01-29T18:55:23.022Z,21.23
2023-01-29T18:58:25.817Z,24.30
2023-01-29T19:00:40.015Z,24.47
2023-01-29T19:03:06.398Z,22.80
2023-01-29T19:05:33.891Z,22.50
2023-01-29T19:08:00.330Z,25.60
2023-01-29T19:10:26.749Z,24.77
2023-01-29T19:12:53.229Z,24.83
2023-01-29T19:15:21.955Z,24.50
2023-01-29T19:17:49.523Z,25.13
2023-01-29T19:20:15.997Z,27.27
2023-01-29T19:22:42.966Z,30.10
2023-01-29T19:25:12.683Z,24.53
2023-01-29T19:27:39.114Z,27.03
2023-01-29T19:30:05.988Z,26.50
2023-01-29T19:32:32.931Z,25.87
2023-01-29T19:34:59.383Z,27.70
2023-01-29T19:37:25.801Z,24.83
2023-01-29T19:39:53.537Z,25.07
2023-01-29T19:42:20.820Z,25.90
2023-01-29T19:44:47.335Z,26.13
2023-01-29T19:47:13.917Z,29.23
2023-01-29T19:49:40.499Z,28.67
2023-01-29T19:52:14.733Z,25.10
2023-01-29T19:54:46.139Z,27.57
2023-01-29T19:57:12.698Z,25.90
2023-01-29T19:59:39.175Z,25.10
2023-01-29T20:02:05.775Z,25.37
2023-01-29T20:04:32.341Z,24.03
2023-01-29T20:06:59.424Z,26.67
2023-01-29T20:09:25.868Z,25.97
2023-01-29T20:11:52.269Z,23.23
2023-01-29T20:14:18.688Z,21.90
2023-01-29T20:16:45.121Z,42.87
2023-01-29T20:19:13.749Z,39.57
2023-01-29T20:21:41.778Z,27.93
2023-01-29T20:24:12.098Z,23.70
2023-01-29T20:26:38.913Z,25.50
2023-01-29T20:29:06.367Z,25.53
2023-01-29T20:31:33.076Z,20.77
2023-01-29T20:33:59.556Z,22.97
2023-01-29T20:36:26.024Z,19.70
2023-01-29T20:38:52.409Z,22.60
2023-01-29T20:41:19.477Z,25.63
2023-01-29T20:43:47.105Z,27.33
2023-01-29T20:46:13.998Z,36.97
2023-01-29T20:48:41.874Z,29.33
2023-01-29T20:51:12.969Z,37.97
2023-01-29T20:53:41.013Z,29.13
2023-01-29T20:56:08.097Z,27.17
2023-01-29T20:58:35.607Z,26.13
2023-01-29T21:01:07.352Z,30.10
2023-01-29T21:03:33.785Z,30.57
2023-01-29T21:06:00.310Z,24.17
2023-01-29T21:08:27.992Z,24.53
2023-01-29T21:10:54.533Z,24.43
2023-01-29T21:13:21.116Z,27.67
2023-01-29T21:15:49.722Z,22.90
2023-01-29T21:18:16.272Z,21.93
2023-01-29T21:20:42.709Z,23.30
2023-01-29T21:23:09.252Z,28.93
2023-01-29T21:25:35.969Z,27.83
2023-01-29T21:28:04.575Z,25.63
2023-01-29T21:30:31.296Z,24.87
2023-01-29T21:32:57.765Z,22.43
2023-01-29T21:35:24.181Z,21.00
2023-01-29T21:37:50.639Z,24.30
2023-01-29T21:40:17.493Z,22.73
2023-01-29T21:43:02.824Z,22.53
2023-01-29T21:45:29.303Z,20.93
2023-01-29T21:47:55.729Z,21.57
2023-01-29T21:50:22.195Z,21.50
2023-01-29T21:52:48.952Z,22.93
2023-01-29T21:55:15.884Z,21.10
2023-01-29T21:57:42.971Z,24.27
2023-01-29T22:00:11.953Z,26.93
2023-01-29T22:02:38.558Z,29.23
2023-01-29T22:05:18.325Z,23.10
2023-01-29T22:07:45.674Z,23.33
2023-01-29T22:10:12.465Z,22.93
2023-01-29T22:12:39.358Z,26.20
2023-01-29T22:15:07.144Z,25.93
2023-01-29T22:17:33.972Z,25.03
2023-01-29T22:20:00.493Z,24.80
2023-01-29T22:22:26.995Z,24.17
2023-01-29T22:24:55.070Z,25.63
2023-01-29T22:27:21.479Z,27.77
2023-01-29T22:29:47.869Z,27.63
2023-01-29T22:32:14.365Z,25.00
2023-01-29T22:34:40.827Z,26.23
2023-01-29T22:37:07.241Z,28.37
2023-01-29T22:39:33.653Z,26.97
2023-01-29T22:42:00.088Z,26.77
2023-01-29T22:44:26.540Z,22.30
2023-01-29T22:46:52.986Z,26.10
2023-01-29T22:49:19.672Z,25.33
2023-01-29T22:51:47.086Z,26.73
2023-01-29T22:54:15.442Z,25.53
2023-01-29T22:56:41.834Z,24.27
2023-01-29T22:59:09.826Z,23.97
2023-01-29T23:01:36.368Z,28.07
2023-01-29T23:04:02.832Z,25.83
2023-01-29T23:06:29.213Z,24.97
2023-01-29T23:08:55.666Z,26.27
2023-01-29T23:11:23.499Z,27.20
2023-01-29T23:13:54.305Z,26.10
2023-01-29T23:16:26.257Z,26.60
2023-01-29T23:18:54.898Z,21.80
2023-01-29T23:21:23.274Z,25.47
2023-01-29T23:23:52.217Z,25.60
2023-01-29T23:26:37.922Z,25.00
2023-01-29T23:29:04.391Z,25.20
2023-01-29T23:31:31.884Z,26.40
2023-01-29T23:34:03.105Z,23.37
2023-01-29T23:36:29.845Z,27.67
2023-01-29T23:38:56.272Z,26.90
2023-01-29T23:41:22.718Z,25.83
2023-01-29T23:43:49.172Z,25.53
2023-01-29T23:46:15.653Z,25.27
2023-01-29T23:48:42.102Z,28.80
2023-01-29T23:51:08.526Z,28.20
2023-01-29T23:53:34.923Z,27.57
2023-01-29T23:56:03.876Z,28.17
2023-01-29T23:58:31.102Z,25.47
